Terminal Aerodrome Forecast
Issued by NWS Cleveland, OH

Home | Current Version | Previous Version | Text Only | Print | Product List | Glossary Off
Versions: 1 2 3 4 5 6 7 8 9 10 11 12 13 14 15 16 17 18 19 20 21 22 23 24 25 26 27 28 29 30

000
FTUS41 KCLE 241700 CCA
TAFTOL
TAF COR
KTOL 241741Z 2418/2518 25012KT 5SM HZ OVC015
     FM250100 26006KT P6SM VCSH SCT010 OVC030
     FM250700 26006KT 4SM -SHSN BR OVC008
     FM251100 02005KT 1SM -SN BR OVC006=

USA.gov is the U.S. government's official web portal to all federal, state and local government web resources and services.